Blanks, Louisiana
Current Conditions -  °F | °C
As of 1:55 AM on Wednesday 26 Nov 2014 (Local Time) from KHZR Reporting Station
Scattered Clouds Scattered Clouds  
Wind Chill: 34°   Ceiling: Unl
Heat Index: 34°   Visibility: 10mi
Dew Point: 33°   Wind: 0mph
Humidity: 98%   Direction: NA
Pressure: 30.21"   Gusts: NA
Location:  30.55°N, 91.6°W
Report Text: KHZR 260755Z AUTO 00000KT 10SM SCT002 01/01 A3021 RMK AO2 T00100007
Loading
Personal Weather Stations






























Interactive Weather Map New forecast layout! Learn more

10-Day Weather Forecast

Advertisements
Track Severe Weather on mobile